EWG8PA EDDL-LEMG
Flight info
| Callsign | EWG8PA |
|---|---|
| Flight time | 2h 58m |
| Altitude | 34000 |
| Route | MODRU2T MODRU Z717 MAS UM617 CIV N872 MEDIL DCT KOVIN DCT DUCRA UM728 RESMI UN857 DISAK DCT ARKIP DCT ARNAV DCT LMG DCT UVELI DCT OSMOB DCT VAVIX DCT NETUK DCT PPN N10 BAN N857 MONTO N864 VULPE |
| Aircraft | A21N/M-SDE2E3FGHIRWXY/LB1 |
Departure
| Time | 2026-05-04 05:38 |
|---|---|
| Airport | Düsseldorf Airport (EDDL) |
Arrival
| Time | 2026-05-04 08:37 |
|---|---|
| Airport | Málaga-Costa del Sol Airport (LEMG) |
| Time | Latitude | Longitude | Altitude | Speed | Heading |
|---|---|---|---|---|---|
| 2026-05-04 05:16 | 51.28061 | 6.76288 | 125 ft | 0 kts | 185° |
| 2026-05-04 05:18 | 51.28062 | 6.76288 | 123 ft | 0 kts | 185° |
| 2026-05-04 05:28 | 51.28105 | 6.76238 | 118 ft | 2 kts | 109° |
| 2026-05-04 05:29 | 51.28110 | 6.76212 | 119 ft | 2 kts | 98° |
| 2026-05-04 05:29 | 51.28111 | 6.76186 | 119 ft | 2 kts | 88° |
| 2026-05-04 05:29 | 51.28109 | 6.76165 | 121 ft | 1 kts | 73° |
| 2026-05-04 05:29 | 51.28108 | 6.76160 | 121 ft | 0 kts | 67° |
| 2026-05-04 05:31 | 51.28108 | 6.76161 | 121 ft | 1 kts | 67° |
| 2026-05-04 05:31 | 51.28114 | 6.76179 | 119 ft | 3 kts | 54° |
| 2026-05-04 05:32 | 51.28130 | 6.76210 | 122 ft | 4 kts | 51° |
| 2026-05-04 05:32 | 51.28152 | 6.76245 | 122 ft | 5 kts | 30° |
| 2026-05-04 05:32 | 51.28188 | 6.76243 | 123 ft | 6 kts | 345° |
| 2026-05-04 05:33 | 51.28268 | 6.76310 | 122 ft | 9 kts | 51° |
| 2026-05-04 05:33 | 51.28313 | 6.76401 | 121 ft | 12 kts | 52° |
| 2026-05-04 05:33 | 51.28367 | 6.76512 | 121 ft | 14 kts | 52° |
| 2026-05-04 05:33 | 51.28431 | 6.76644 | 120 ft | 16 kts | 53° |
| 2026-05-04 05:34 | 51.28500 | 6.76795 | 120 ft | 17 kts | 54° |
| 2026-05-04 05:34 | 51.28574 | 6.76953 | 122 ft | 18 kts | 53° |
| 2026-05-04 05:34 | 51.28652 | 6.77114 | 124 ft | 19 kts | 52° |
| 2026-05-04 05:34 | 51.28732 | 6.77280 | 119 ft | 19 kts | 52° |
| 2026-05-04 05:35 | 51.28813 | 6.77450 | 123 ft | 20 kts | 53° |
| 2026-05-04 05:35 | 51.28896 | 6.77624 | 121 ft | 20 kts | 53° |
| 2026-05-04 05:35 | 51.28981 | 6.77803 | 123 ft | 20 kts | 53° |
| 2026-05-04 05:35 | 51.29068 | 6.77985 | 120 ft | 21 kts | 53° |
| 2026-05-04 05:36 | 51.29157 | 6.78172 | 122 ft | 21 kts | 53° |
| 2026-05-04 05:36 | 51.29247 | 6.78360 | 122 ft | 22 kts | 53° |
| 2026-05-04 05:36 | 51.29335 | 6.78538 | 122 ft | 19 kts | 32° |
| 2026-05-04 05:36 | 51.29453 | 6.78562 | 121 ft | 13 kts | 355° |
| 2026-05-04 05:37 | 51.29528 | 6.78520 | 123 ft | 12 kts | 263° |
| 2026-05-04 05:37 | 51.29506 | 6.78443 | 120 ft | 0 kts | 232° |
| 2026-05-04 05:38 | 51.29055 | 6.77499 | 122 ft | 120 kts | 233° |
| 2026-05-04 05:38 | 51.28437 | 6.76202 | 154 ft | 165 kts | 230° |
| 2026-05-04 05:38 | 51.27759 | 6.74787 | 752 ft | 161 kts | 233° |
| 2026-05-04 05:38 | 51.27137 | 6.73301 | 1387 ft | 162 kts | 237° |
| 2026-05-04 05:39 | 51.26482 | 6.71760 | 1912 ft | 173 kts | 235° |
| 2026-05-04 05:39 | 51.24912 | 6.68513 | 3000 ft | 195 kts | 234° |
| 2026-05-04 05:39 | 51.24096 | 6.66722 | 3609 ft | 204 kts | 238° |
| 2026-05-04 05:40 | 51.24166 | 6.62181 | 4479 ft | 241 kts | 304° |
| 2026-05-04 05:40 | 51.25440 | 6.60230 | 4818 ft | 264 kts | 320° |
| 2026-05-04 05:40 | 51.26911 | 6.58443 | 5571 ft | 267 kts | 321° |
| 2026-05-04 05:41 | 51.28374 | 6.56667 | 6345 ft | 268 kts | 319° |
| 2026-05-04 05:41 | 51.29840 | 6.54791 | 7068 ft | 271 kts | 318° |
| 2026-05-04 05:41 | 51.31324 | 6.52890 | 7795 ft | 275 kts | 318° |
| 2026-05-04 05:41 | 51.32816 | 6.50970 | 8541 ft | 278 kts | 317° |
| 2026-05-04 05:42 | 51.34332 | 6.49016 | 9299 ft | 281 kts | 317° |
| 2026-05-04 05:42 | 51.35861 | 6.47048 | 10018 ft | 284 kts | 317° |
| 2026-05-04 05:42 | 51.37404 | 6.45057 | 10704 ft | 287 kts | 317° |
| 2026-05-04 05:42 | 51.38868 | 6.42878 | 11361 ft | 286 kts | 302° |
| 2026-05-04 05:43 | 51.39729 | 6.40072 | 12025 ft | 281 kts | 280° |
| 2026-05-04 05:43 | 51.39845 | 6.36980 | 12685 ft | 279 kts | 259° |
| 2026-05-04 05:43 | 51.39246 | 6.34069 | 13346 ft | 279 kts | 239° |
| 2026-05-04 05:45 | 51.27671 | 6.20855 | 16647 ft | 333 kts | 240° |
| 2026-05-04 05:45 | 51.26567 | 6.17517 | 16865 ft | 347 kts | 243° |
| 2026-05-04 05:47 | 51.17767 | 5.90980 | 18123 ft | 415 kts | 241° |
| 2026-05-04 05:47 | 51.16383 | 5.86931 | 18407 ft | 418 kts | 241° |
| 2026-05-04 05:47 | 51.14991 | 5.82837 | 18720 ft | 419 kts | 241° |
| 2026-05-04 05:48 | 51.13608 | 5.78747 | 19040 ft | 420 kts | 241° |
| 2026-05-04 05:48 | 51.12218 | 5.74652 | 19359 ft | 422 kts | 241° |
| 2026-05-04 05:48 | 51.10819 | 5.70541 | 19699 ft | 423 kts | 241° |
| 2026-05-04 05:48 | 51.09417 | 5.66430 | 20032 ft | 424 kts | 240° |
| 2026-05-04 05:49 | 51.08003 | 5.62297 | 20348 ft | 426 kts | 240° |
| 2026-05-04 05:49 | 51.06582 | 5.58153 | 20676 ft | 427 kts | 240° |
| 2026-05-04 05:49 | 51.05156 | 5.54001 | 21044 ft | 429 kts | 240° |
| 2026-05-04 05:49 | 51.03724 | 5.49834 | 21447 ft | 431 kts | 240° |
| 2026-05-04 05:51 | 50.93521 | 5.20396 | 23354 ft | 440 kts | 239° |
| 2026-05-04 05:51 | 50.92032 | 5.16096 | 23580 ft | 441 kts | 239° |
| 2026-05-04 05:52 | 50.90554 | 5.11847 | 23855 ft | 440 kts | 239° |
| 2026-05-04 05:52 | 50.89074 | 5.07614 | 24140 ft | 438 kts | 239° |
| 2026-05-04 05:52 | 50.87599 | 5.03402 | 24419 ft | 436 kts | 239° |
| 2026-05-04 05:52 | 50.86133 | 4.99219 | 24696 ft | 434 kts | 239° |
| 2026-05-04 05:53 | 50.84688 | 4.95100 | 24965 ft | 433 kts | 239° |
| 2026-05-04 05:54 | 50.74538 | 4.66400 | 26830 ft | 423 kts | 239° |
| 2026-05-04 05:55 | 50.73107 | 4.62354 | 27087 ft | 421 kts | 240° |
| 2026-05-04 05:55 | 50.71918 | 4.58115 | 27337 ft | 423 kts | 248° |
| 2026-05-04 05:55 | 50.71033 | 4.53694 | 27597 ft | 422 kts | 250° |
| 2026-05-04 05:55 | 50.70248 | 4.49502 | 27855 ft | 421 kts | 250° |
| 2026-05-04 05:56 | 50.69420 | 4.45083 | 28112 ft | 419 kts | 250° |
| 2026-05-04 05:56 | 50.68607 | 4.40809 | 28350 ft | 418 kts | 250° |
| 2026-05-04 05:56 | 50.67744 | 4.36312 | 28611 ft | 416 kts | 250° |
| 2026-05-04 05:56 | 50.66913 | 4.31997 | 28862 ft | 415 kts | 250° |
| 2026-05-04 05:57 | 50.66076 | 4.27661 | 29112 ft | 414 kts | 250° |
| 2026-05-04 05:57 | 50.65239 | 4.23334 | 29352 ft | 412 kts | 250° |
| 2026-05-04 05:57 | 50.64389 | 4.18952 | 29599 ft | 411 kts | 250° |
| 2026-05-04 05:57 | 50.63563 | 4.14709 | 29831 ft | 410 kts | 250° |
| 2026-05-04 05:58 | 50.62728 | 4.10427 | 30059 ft | 409 kts | 250° |
| 2026-05-04 05:58 | 50.61896 | 4.06161 | 30255 ft | 408 kts | 250° |
| 2026-05-04 05:58 | 50.61057 | 4.01886 | 30423 ft | 407 kts | 250° |
| 2026-05-04 05:58 | 50.60219 | 3.97636 | 30601 ft | 407 kts | 250° |
| 2026-05-04 05:59 | 50.59371 | 3.93378 | 30752 ft | 406 kts | 248° |
| 2026-05-04 05:59 | 50.58288 | 3.89309 | 30893 ft | 403 kts | 240° |
| 2026-05-04 05:59 | 50.56763 | 3.85627 | 31037 ft | 401 kts | 230° |
| 2026-05-04 05:59 | 50.54826 | 3.82486 | 31170 ft | 401 kts | 220° |
| 2026-05-04 06:00 | 50.52536 | 3.79983 | 31301 ft | 402 kts | 211° |
| 2026-05-04 06:00 | 50.50001 | 3.78091 | 31441 ft | 403 kts | 206° |
| 2026-05-04 06:00 | 50.47453 | 3.76402 | 31590 ft | 403 kts | 205° |
| 2026-05-04 06:00 | 50.44865 | 3.74693 | 31730 ft | 403 kts | 205° |
| 2026-05-04 06:01 | 50.42289 | 3.72968 | 31875 ft | 403 kts | 206° |
| 2026-05-04 06:01 | 50.39712 | 3.71228 | 31987 ft | 403 kts | 206° |
| 2026-05-04 06:03 | 50.21351 | 3.58822 | 32175 ft | 416 kts | 206° |
| 2026-05-04 06:03 | 50.18683 | 3.57027 | 32177 ft | 417 kts | 205° |
| 2026-05-04 06:05 | 49.94675 | 3.40976 | 32205 ft | 418 kts | 205° |
| 2026-05-04 06:06 | 49.89323 | 3.37422 | 32197 ft | 418 kts | 205° |
| 2026-05-04 06:06 | 49.83973 | 3.33878 | 32197 ft | 418 kts | 205° |
| 2026-05-04 06:07 | 49.78621 | 3.30341 | 32199 ft | 418 kts | 205° |
| 2026-05-04 06:07 | 49.73269 | 3.26814 | 32199 ft | 418 kts | 205° |
| 2026-05-04 06:08 | 49.67910 | 3.23289 | 32197 ft | 418 kts | 204° |
| 2026-05-04 06:08 | 49.62567 | 3.19782 | 32198 ft | 418 kts | 204° |
| 2026-05-04 06:09 | 49.57219 | 3.16280 | 32198 ft | 417 kts | 204° |
| 2026-05-04 06:11 | 49.37092 | 2.98972 | 32203 ft | 416 kts | 213° |
| 2026-05-04 06:13 | 49.17733 | 2.79437 | 32237 ft | 416 kts | 213° |
| 2026-05-04 06:14 | 49.00757 | 2.62460 | 32336 ft | 417 kts | 212° |
| 2026-05-04 06:15 | 48.95904 | 2.57632 | 32359 ft | 417 kts | 212° |
| 2026-05-04 06:15 | 48.91073 | 2.52841 | 32381 ft | 417 kts | 212° |
| 2026-05-04 06:16 | 48.86207 | 2.48023 | 32399 ft | 417 kts | 212° |
| 2026-05-04 06:16 | 48.81339 | 2.43216 | 32435 ft | 417 kts | 212° |
| 2026-05-04 06:17 | 48.76472 | 2.38419 | 32455 ft | 417 kts | 212° |
| 2026-05-04 06:17 | 48.71600 | 2.33627 | 32460 ft | 418 kts | 212° |
| 2026-05-04 06:18 | 48.67551 | 2.29655 | 32473 ft | 418 kts | 212° |
| 2026-05-04 06:20 | 48.46477 | 2.15807 | 32516 ft | 419 kts | 193° |
| 2026-05-04 06:21 | 48.32233 | 2.11255 | 32552 ft | 420 kts | 193° |
| 2026-05-04 06:22 | 48.26423 | 2.10391 | 32541 ft | 423 kts | 178° |
| 2026-05-04 06:25 | 47.85784 | 2.07898 | 32679 ft | 420 kts | 188° |
| 2026-05-04 06:26 | 47.79986 | 2.06793 | 32714 ft | 420 kts | 188° |
| 2026-05-04 06:26 | 47.74189 | 2.05687 | 32725 ft | 420 kts | 188° |
| 2026-05-04 06:27 | 47.59873 | 2.01718 | 32779 ft | 419 kts | 201° |
| 2026-05-04 06:28 | 47.54451 | 1.98516 | 32809 ft | 420 kts | 201° |
| 2026-05-04 06:28 | 47.49017 | 1.95342 | 32843 ft | 420 kts | 201° |
| 2026-05-04 06:29 | 47.43571 | 1.92192 | 32880 ft | 420 kts | 201° |
| 2026-05-04 06:29 | 47.38125 | 1.89051 | 32908 ft | 420 kts | 201° |
| 2026-05-04 06:30 | 47.32716 | 1.85941 | 32934 ft | 420 kts | 201° |
| 2026-05-04 06:30 | 47.27265 | 1.82811 | 32962 ft | 420 kts | 201° |
| 2026-05-04 06:31 | 47.21814 | 1.79689 | 32992 ft | 420 kts | 201° |
| 2026-05-04 06:31 | 47.16353 | 1.76589 | 33022 ft | 420 kts | 201° |
| 2026-05-04 06:33 | 46.94486 | 1.64314 | 33131 ft | 420 kts | 201° |
| 2026-05-04 06:34 | 46.89023 | 1.61261 | 33157 ft | 420 kts | 201° |
| 2026-05-04 06:34 | 46.83559 | 1.58219 | 33184 ft | 420 kts | 201° |
| 2026-05-04 06:36 | 46.61699 | 1.46101 | 33271 ft | 420 kts | 201° |
| 2026-05-04 06:37 | 46.56243 | 1.43092 | 33291 ft | 420 kts | 201° |
| 2026-05-04 06:37 | 46.50777 | 1.40080 | 33295 ft | 420 kts | 201° |
| 2026-05-04 06:38 | 46.45311 | 1.37081 | 33309 ft | 420 kts | 201° |
| 2026-05-04 06:40 | 46.23453 | 1.25144 | 33396 ft | 420 kts | 200° |
| 2026-05-04 06:40 | 46.17984 | 1.22172 | 33432 ft | 420 kts | 200° |
| 2026-05-04 06:41 | 46.12507 | 1.19204 | 33469 ft | 420 kts | 200° |
| 2026-05-04 06:41 | 46.07042 | 1.16250 | 33548 ft | 419 kts | 200° |
| 2026-05-04 06:42 | 46.01615 | 1.13320 | 33572 ft | 419 kts | 200° |
| 2026-05-04 06:44 | 45.80001 | 1.00691 | 33598 ft | 422 kts | 216° |
| 2026-05-04 06:44 | 45.75479 | 0.95308 | 33596 ft | 424 kts | 218° |
| 2026-05-04 06:45 | 45.70977 | 0.89859 | 33603 ft | 424 kts | 218° |
| 2026-05-04 06:45 | 45.66454 | 0.84447 | 33606 ft | 424 kts | 218° |
| 2026-05-04 06:46 | 45.61980 | 0.79117 | 33637 ft | 424 kts | 218° |
| 2026-05-04 06:46 | 45.57385 | 0.73654 | 33649 ft | 424 kts | 218° |
| 2026-05-04 06:48 | 45.39153 | 0.52090 | 33671 ft | 425 kts | 218° |
| 2026-05-04 06:50 | 45.20985 | 0.30794 | 33941 ft | 421 kts | 218° |
| 2026-05-04 06:51 | 45.16452 | 0.25506 | 33943 ft | 422 kts | 218° |
| 2026-05-04 06:51 | 45.11902 | 0.20211 | 33933 ft | 422 kts | 218° |
| 2026-05-04 06:52 | 45.07398 | 0.14982 | 33929 ft | 421 kts | 218° |
| 2026-05-04 06:52 | 45.02887 | 0.09752 | 33926 ft | 411 kts | 218° |
| 2026-05-04 06:53 | 44.98496 | 0.04677 | 33935 ft | 407 kts | 218° |
| 2026-05-04 06:53 | 44.94114 | -0.00380 | 33928 ft | 406 kts | 218° |
| 2026-05-04 06:54 | 44.89735 | -0.05433 | 33931 ft | 406 kts | 218° |
| 2026-05-04 06:54 | 44.85379 | -0.10444 | 33930 ft | 407 kts | 218° |
| 2026-05-04 06:55 | 44.80987 | -0.15480 | 33936 ft | 407 kts | 218° |
| 2026-05-04 06:55 | 44.76598 | -0.20504 | 33928 ft | 407 kts | 218° |
| 2026-05-04 06:57 | 44.58633 | -0.39896 | 33933 ft | 407 kts | 214° |
| 2026-05-04 06:58 | 44.53989 | -0.44359 | 33933 ft | 407 kts | 214° |
| 2026-05-04 06:58 | 44.49305 | -0.48853 | 33931 ft | 408 kts | 214° |
| 2026-05-04 06:59 | 44.44631 | -0.53334 | 33933 ft | 408 kts | 214° |
| 2026-05-04 06:59 | 44.39945 | -0.57816 | 33934 ft | 408 kts | 214° |
| 2026-05-04 07:01 | 44.21141 | -0.75544 | 33943 ft | 409 kts | 214° |
| 2026-05-04 07:02 | 44.16384 | -0.79909 | 33932 ft | 409 kts | 214° |
| 2026-05-04 07:02 | 44.11636 | -0.84267 | 33933 ft | 409 kts | 214° |
| 2026-05-04 07:03 | 44.06869 | -0.88626 | 33934 ft | 409 kts | 214° |
| 2026-05-04 07:03 | 44.02111 | -0.92970 | 33935 ft | 409 kts | 214° |
| 2026-05-04 07:04 | 43.97387 | -0.97289 | 33941 ft | 409 kts | 214° |
| 2026-05-04 07:04 | 43.92627 | -1.01612 | 33943 ft | 409 kts | 214° |
| 2026-05-04 07:05 | 43.87856 | -1.05945 | 33954 ft | 409 kts | 214° |
| 2026-05-04 07:05 | 43.83093 | -1.10261 | 33966 ft | 409 kts | 214° |
| 2026-05-04 07:06 | 43.76749 | -1.15998 | 33962 ft | 409 kts | 214° |
| 2026-05-04 07:07 | 43.71988 | -1.20303 | 33965 ft | 408 kts | 214° |
| 2026-05-04 07:09 | 43.52970 | -1.37387 | 33965 ft | 407 kts | 214° |
| 2026-05-04 07:09 | 43.48217 | -1.41636 | 33966 ft | 407 kts | 214° |
| 2026-05-04 07:10 | 43.43501 | -1.45833 | 33965 ft | 406 kts | 214° |
| 2026-05-04 07:12 | 43.24136 | -1.61745 | 33983 ft | 411 kts | 197° |
| 2026-05-04 07:12 | 43.18453 | -1.62865 | 33990 ft | 414 kts | 190° |
| 2026-05-04 07:13 | 43.12724 | -1.63744 | 33975 ft | 414 kts | 191° |
| 2026-05-04 07:13 | 43.07001 | -1.64677 | 33975 ft | 413 kts | 191° |
| 2026-05-04 07:14 | 42.92761 | -1.67024 | 33953 ft | 412 kts | 191° |
| 2026-05-04 07:15 | 42.87067 | -1.67978 | 33960 ft | 411 kts | 193° |
| 2026-05-04 07:15 | 42.84340 | -1.68994 | 33958 ft | 405 kts | 205° |
| 2026-05-04 07:15 | 42.81787 | -1.70605 | 33968 ft | 403 kts | 209° |
| 2026-05-04 07:16 | 42.76781 | -1.74023 | 33974 ft | 402 kts | 209° |
| 2026-05-04 07:16 | 42.71752 | -1.77389 | 33973 ft | 402 kts | 208° |
| 2026-05-04 07:17 | 42.66730 | -1.80718 | 33958 ft | 401 kts | 208° |
| 2026-05-04 07:17 | 42.61722 | -1.84030 | 33961 ft | 401 kts | 208° |
| 2026-05-04 07:18 | 42.56700 | -1.87345 | 33967 ft | 400 kts | 208° |
| 2026-05-04 07:18 | 42.51698 | -1.90641 | 33961 ft | 400 kts | 208° |
| 2026-05-04 07:19 | 42.46691 | -1.93932 | 33964 ft | 399 kts | 208° |
| 2026-05-04 07:19 | 42.41723 | -1.97193 | 33962 ft | 399 kts | 208° |
| 2026-05-04 07:20 | 42.36732 | -2.00462 | 33958 ft | 399 kts | 208° |
| 2026-05-04 07:20 | 42.31737 | -2.03729 | 33960 ft | 398 kts | 209° |
| 2026-05-04 07:22 | 42.11799 | -2.16711 | 33957 ft | 397 kts | 209° |
| 2026-05-04 07:23 | 42.06809 | -2.19945 | 33954 ft | 398 kts | 209° |
| 2026-05-04 07:23 | 42.01819 | -2.23178 | 33948 ft | 397 kts | 209° |
| 2026-05-04 07:24 | 41.96837 | -2.26394 | 33952 ft | 397 kts | 209° |
| 2026-05-04 07:24 | 41.91853 | -2.29606 | 33953 ft | 397 kts | 209° |
| 2026-05-04 07:26 | 41.71941 | -2.42396 | 33962 ft | 397 kts | 209° |
| 2026-05-04 07:27 | 41.66949 | -2.45592 | 33960 ft | 398 kts | 209° |
| 2026-05-04 07:27 | 41.61958 | -2.48777 | 33966 ft | 397 kts | 209° |
| 2026-05-04 07:28 | 41.56973 | -2.51956 | 33964 ft | 397 kts | 209° |
| 2026-05-04 07:28 | 41.51979 | -2.55131 | 33959 ft | 397 kts | 209° |
| 2026-05-04 07:29 | 41.46978 | -2.58306 | 33963 ft | 397 kts | 209° |
| 2026-05-04 07:29 | 41.41988 | -2.61469 | 33959 ft | 397 kts | 209° |
| 2026-05-04 07:30 | 41.37003 | -2.64624 | 33966 ft | 397 kts | 209° |
| 2026-05-04 07:30 | 41.32050 | -2.67754 | 33962 ft | 397 kts | 209° |
| 2026-05-04 07:31 | 41.27066 | -2.70897 | 33965 ft | 396 kts | 209° |
| 2026-05-04 07:33 | 41.07165 | -2.83393 | 33963 ft | 395 kts | 209° |
| 2026-05-04 07:33 | 41.02201 | -2.86500 | 33964 ft | 394 kts | 209° |
| 2026-05-04 07:34 | 40.97240 | -2.89597 | 33962 ft | 394 kts | 209° |
| 2026-05-04 07:34 | 40.92279 | -2.92688 | 33967 ft | 394 kts | 209° |
| 2026-05-04 07:35 | 40.87311 | -2.95767 | 33966 ft | 394 kts | 209° |
| 2026-05-04 07:35 | 40.82382 | -2.98824 | 33967 ft | 394 kts | 210° |
| 2026-05-04 07:36 | 40.77465 | -3.01871 | 33963 ft | 393 kts | 210° |
| 2026-05-04 07:38 | 40.57627 | -3.14138 | 33969 ft | 393 kts | 210° |
| 2026-05-04 07:38 | 40.52662 | -3.17183 | 33973 ft | 393 kts | 210° |
| 2026-05-04 07:39 | 40.47712 | -3.20232 | 33969 ft | 393 kts | 210° |
| 2026-05-04 07:39 | 40.42748 | -3.23280 | 33987 ft | 393 kts | 210° |
| 2026-05-04 07:40 | 40.37799 | -3.26309 | 33979 ft | 392 kts | 210° |
| 2026-05-04 07:40 | 40.32876 | -3.29319 | 33983 ft | 392 kts | 210° |
| 2026-05-04 07:41 | 40.27896 | -3.32359 | 33985 ft | 392 kts | 210° |
| 2026-05-04 07:41 | 40.22956 | -3.35366 | 33986 ft | 392 kts | 210° |
| 2026-05-04 07:42 | 40.18044 | -3.38351 | 33984 ft | 391 kts | 210° |
| 2026-05-04 07:42 | 40.13105 | -3.41351 | 33987 ft | 391 kts | 210° |
| 2026-05-04 07:43 | 40.08170 | -3.44341 | 33982 ft | 391 kts | 210° |
| 2026-05-04 07:43 | 40.03230 | -3.47331 | 33980 ft | 391 kts | 210° |
| 2026-05-04 07:44 | 39.98284 | -3.50320 | 33979 ft | 391 kts | 210° |
| 2026-05-04 07:44 | 39.93335 | -3.53305 | 33975 ft | 392 kts | 210° |
| 2026-05-04 07:45 | 39.88388 | -3.56285 | 33977 ft | 392 kts | 210° |
| 2026-05-04 07:45 | 39.83433 | -3.59263 | 33976 ft | 392 kts | 210° |
| 2026-05-04 07:46 | 39.78473 | -3.62242 | 33978 ft | 392 kts | 210° |
| 2026-05-04 07:46 | 39.73514 | -3.65215 | 33981 ft | 393 kts | 210° |
| 2026-05-04 07:47 | 39.68586 | -3.68163 | 33977 ft | 393 kts | 210° |
| 2026-05-04 07:49 | 39.48701 | -3.80016 | 33980 ft | 394 kts | 210° |
| 2026-05-04 07:49 | 39.43715 | -3.82977 | 33984 ft | 394 kts | 210° |
| 2026-05-04 07:50 | 39.38729 | -3.85933 | 33989 ft | 394 kts | 210° |
| 2026-05-04 07:50 | 39.33736 | -3.88886 | 33983 ft | 395 kts | 210° |
| 2026-05-04 07:51 | 39.28772 | -3.91822 | 33988 ft | 395 kts | 210° |
| 2026-05-04 07:51 | 39.23763 | -3.94777 | 33988 ft | 396 kts | 210° |
| 2026-05-04 07:52 | 39.18741 | -3.97733 | 33993 ft | 396 kts | 210° |
| 2026-05-04 07:52 | 39.14570 | -4.00186 | 33984 ft | 397 kts | 210° |
| 2026-05-04 07:54 | 38.94435 | -4.11969 | 34002 ft | 398 kts | 210° |
| 2026-05-04 07:55 | 38.89388 | -4.14924 | 34006 ft | 399 kts | 210° |
| 2026-05-04 07:55 | 38.84366 | -4.17857 | 34010 ft | 399 kts | 210° |
| 2026-05-04 07:56 | 38.79307 | -4.20799 | 34011 ft | 400 kts | 210° |
| 2026-05-04 07:56 | 38.74242 | -4.23743 | 34006 ft | 400 kts | 210° |
| 2026-05-04 07:57 | 38.69171 | -4.26683 | 34013 ft | 400 kts | 210° |
| 2026-05-04 07:57 | 38.64092 | -4.29625 | 34017 ft | 400 kts | 210° |
| 2026-05-04 07:58 | 38.59019 | -4.32560 | 34025 ft | 400 kts | 210° |
| 2026-05-04 07:58 | 38.53942 | -4.35491 | 34018 ft | 400 kts | 210° |
| 2026-05-04 07:59 | 38.48861 | -4.38419 | 34021 ft | 401 kts | 210° |
| 2026-05-04 07:59 | 38.43774 | -4.41345 | 34041 ft | 401 kts | 210° |
| 2026-05-04 08:00 | 38.38693 | -4.44263 | 34029 ft | 401 kts | 210° |
| 2026-05-04 08:02 | 38.18394 | -4.55886 | 34026 ft | 400 kts | 210° |
| 2026-05-04 08:02 | 38.13314 | -4.58783 | 34023 ft | 398 kts | 210° |
| 2026-05-04 08:03 | 38.10962 | -4.60120 | 33715 ft | 395 kts | 210° |
| 2026-05-04 08:03 | 38.08421 | -4.61570 | 33409 ft | 397 kts | 210° |
| 2026-05-04 08:03 | 38.05895 | -4.63013 | 33126 ft | 397 kts | 210° |
| 2026-05-04 08:03 | 38.03375 | -4.64447 | 32857 ft | 398 kts | 210° |
| 2026-05-04 08:04 | 38.00859 | -4.65877 | 32204 ft | 396 kts | 210° |
| 2026-05-04 08:04 | 37.98328 | -4.67324 | 31019 ft | 405 kts | 210° |
| 2026-05-04 08:04 | 37.95726 | -4.68805 | 29943 ft | 411 kts | 210° |
| 2026-05-04 08:04 | 37.93111 | -4.70285 | 28993 ft | 411 kts | 210° |
| 2026-05-04 08:05 | 37.90503 | -4.71755 | 28238 ft | 410 kts | 209° |
| 2026-05-04 08:05 | 37.87885 | -4.73223 | 27545 ft | 409 kts | 209° |
| 2026-05-04 08:05 | 37.85327 | -4.74663 | 26843 ft | 408 kts | 209° |
| 2026-05-04 08:05 | 37.82733 | -4.76125 | 26075 ft | 408 kts | 209° |
| 2026-05-04 08:06 | 37.80109 | -4.77499 | 25301 ft | 411 kts | 205° |
| 2026-05-04 08:06 | 37.77330 | -4.78417 | 24589 ft | 417 kts | 195° |
| 2026-05-04 08:06 | 37.74397 | -4.78697 | 23927 ft | 426 kts | 185° |
| 2026-05-04 08:06 | 37.71426 | -4.78275 | 23279 ft | 435 kts | 174° |
| 2026-05-04 08:08 | 37.50683 | -4.70982 | 19816 ft | 429 kts | 171° |
| 2026-05-04 08:08 | 37.47809 | -4.69983 | 19269 ft | 424 kts | 171° |
| 2026-05-04 08:10 | 37.27463 | -4.58808 | 15977 ft | 356 kts | 161° |
| 2026-05-04 08:11 | 37.25179 | -4.58027 | 15786 ft | 327 kts | 182° |
| 2026-05-04 08:11 | 37.20859 | -4.58034 | 15491 ft | 298 kts | 187° |
| 2026-05-04 08:11 | 37.18795 | -4.58066 | 15083 ft | 296 kts | 187° |
| 2026-05-04 08:12 | 37.16731 | -4.58080 | 14609 ft | 296 kts | 187° |
| 2026-05-04 08:12 | 37.14676 | -4.58079 | 14164 ft | 295 kts | 186° |
| 2026-05-04 08:12 | 37.12630 | -4.58071 | 13727 ft | 294 kts | 186° |
| 2026-05-04 08:12 | 37.10590 | -4.58059 | 13265 ft | 292 kts | 186° |
| 2026-05-04 08:13 | 37.08555 | -4.58046 | 12782 ft | 291 kts | 186° |
| 2026-05-04 08:13 | 37.06533 | -4.58032 | 12355 ft | 289 kts | 186° |
| 2026-05-04 08:13 | 37.04529 | -4.58019 | 11924 ft | 288 kts | 186° |
| 2026-05-04 08:13 | 37.02530 | -4.58002 | 11517 ft | 285 kts | 186° |
| 2026-05-04 08:14 | 37.00552 | -4.57985 | 11154 ft | 282 kts | 186° |
| 2026-05-04 08:14 | 36.98604 | -4.57968 | 10818 ft | 280 kts | 186° |
| 2026-05-04 08:14 | 36.96659 | -4.57954 | 10483 ft | 278 kts | 185° |
| 2026-05-04 08:16 | 36.85408 | -4.48143 | 8030 ft | 293 kts | 139° |
| 2026-05-04 08:16 | 36.83972 | -4.46353 | 7961 ft | 291 kts | 139° |
| 2026-05-04 08:16 | 36.82539 | -4.44574 | 7948 ft | 290 kts | 139° |
| 2026-05-04 08:17 | 36.81099 | -4.42795 | 7988 ft | 292 kts | 140° |
| 2026-05-04 08:17 | 36.79652 | -4.41017 | 7983 ft | 292 kts | 140° |
| 2026-05-04 08:17 | 36.78203 | -4.39242 | 7994 ft | 292 kts | 140° |
| 2026-05-04 08:17 | 36.76754 | -4.37462 | 7988 ft | 292 kts | 140° |
| 2026-05-04 08:19 | 36.65328 | -4.28465 | 7035 ft | 255 kts | 159° |
| 2026-05-04 08:19 | 36.63741 | -4.27500 | 7005 ft | 255 kts | 159° |
| 2026-05-04 08:20 | 36.62154 | -4.26505 | 7023 ft | 257 kts | 154° |
| 2026-05-04 08:20 | 36.60771 | -4.25061 | 7006 ft | 263 kts | 136° |
| 2026-05-04 08:20 | 36.59591 | -4.23307 | 7028 ft | 264 kts | 134° |
| 2026-05-04 08:20 | 36.58432 | -4.21538 | 6997 ft | 264 kts | 134° |
| 2026-05-04 08:21 | 36.57251 | -4.19789 | 7028 ft | 263 kts | 136° |
| 2026-05-04 08:21 | 36.56025 | -4.18141 | 6997 ft | 262 kts | 138° |
| 2026-05-04 08:21 | 36.54748 | -4.16469 | 7019 ft | 262 kts | 138° |
| 2026-05-04 08:21 | 36.53508 | -4.14850 | 7008 ft | 262 kts | 138° |
| 2026-05-04 08:22 | 36.52256 | -4.13209 | 7010 ft | 262 kts | 137° |
| 2026-05-04 08:22 | 36.51034 | -4.11522 | 7014 ft | 262 kts | 136° |
| 2026-05-04 08:24 | 36.42529 | -3.99734 | 6402 ft | 261 kts | 136° |
| 2026-05-04 08:24 | 36.41305 | -3.98066 | 6242 ft | 259 kts | 140° |
| 2026-05-04 08:24 | 36.39844 | -3.96904 | 6060 ft | 246 kts | 171° |
| 2026-05-04 08:24 | 36.38198 | -3.96937 | 5917 ft | 234 kts | 204° |
| 2026-05-04 08:25 | 36.36855 | -3.97985 | 5790 ft | 228 kts | 225° |
| 2026-05-04 08:25 | 36.35713 | -3.99347 | 5661 ft | 228 kts | 227° |
| 2026-05-04 08:25 | 36.34650 | -4.00786 | 5510 ft | 226 kts | 236° |
| 2026-05-04 08:25 | 36.34173 | -4.02588 | 5354 ft | 225 kts | 270° |
| 2026-05-04 08:26 | 36.34583 | -4.04447 | 5223 ft | 229 kts | 298° |
| 2026-05-04 08:27 | 36.42180 | -4.14733 | 4192 ft | 232 kts | 309° |
| 2026-05-04 08:28 | 36.43259 | -4.16215 | 4033 ft | 233 kts | 309° |
| 2026-05-04 08:28 | 36.44327 | -4.17690 | 3883 ft | 232 kts | 309° |
| 2026-05-04 08:28 | 36.45404 | -4.19184 | 3738 ft | 231 kts | 309° |
| 2026-05-04 08:28 | 36.46474 | -4.20675 | 3583 ft | 232 kts | 309° |
| 2026-05-04 08:29 | 36.47544 | -4.22171 | 3465 ft | 231 kts | 310° |
| 2026-05-04 08:29 | 36.48620 | -4.23662 | 3315 ft | 231 kts | 310° |
| 2026-05-04 08:29 | 36.49696 | -4.25145 | 3172 ft | 231 kts | 310° |
| 2026-05-04 08:31 | 36.56545 | -4.34583 | 2211 ft | 177 kts | 310° |
| 2026-05-04 08:33 | 36.61610 | -4.41707 | 1561 ft | 136 kts | 313° |
| 2026-05-04 08:33 | 36.62268 | -4.42588 | 1418 ft | 141 kts | 311° |
| 2026-05-04 08:35 | 36.65571 | -4.47243 | 485 ft | 134 kts | 310° |
| 2026-05-04 08:35 | 36.66188 | -4.48104 | 306 ft | 132 kts | 309° |
| 2026-05-04 08:35 | 36.66823 | -4.48980 | 66 ft | 135 kts | 310° |
| 2026-05-04 08:35 | 36.67400 | -4.49787 | 48 ft | 112 kts | 313° |
| 2026-05-04 08:37 | 36.68031 | -4.50474 | 48 ft | 0 kts | 33° |
| 2026-05-04 08:37 | 36.68060 | -4.50442 | 51 ft | 12 kts | 74° |
| 2026-05-04 08:37 | 36.68026 | -4.50362 | 49 ft | 10 kts | 128° |
| 2026-05-04 08:38 | 36.67979 | -4.50291 | 51 ft | 11 kts | 130° |
| 2026-05-04 08:38 | 36.67922 | -4.50211 | 50 ft | 13 kts | 131° |
| 2026-05-04 08:38 | 36.67860 | -4.50124 | 50 ft | 7 kts | 132° |
| 2026-05-04 08:41 | 36.67961 | -4.49668 | 50 ft | 8 kts | 54° |
| 2026-05-04 08:41 | 36.67931 | -4.49623 | 49 ft | 7 kts | 133° |
| 2026-05-04 08:41 | 36.67897 | -4.49576 | 49 ft | 0 kts | 132° |